Time;durP1;ratioP1;P1;durP2;ratioP2;P2;SDS_P1;SDS_P2;PMS_P1;PMS_P2;Temp;Humidity;BMP_temperature;BMP_pressure;BME280_temperature;BME280_humidity;BME280_pressure;Samples;Min_cycle;Max_cycle;Signal;HPM_P1;HPM_P2
2022/03/12 00:00:52;;;;;;;15.00;6.95;;;7.00;50.70;;;;;;5012137;28;20096;-38
2022/03/12 00:03:19;;;;;;;13.98;6.82;;;7.00;50.50;;;;;;5012363;28;20041;-38
2022/03/12 00:05:52;;;;;;;18.15;7.45;;;7.00;50.30;;;;;;5013129;28;20385;-38
2022/03/12 00:08:21;;;;;;;12.25;6.85;;;7.00;50.10;;;;;;5012236;28;20140;-37
2022/03/12 00:10:49;;;;;;;17.02;8.18;;;7.10;50.30;;;;;;5012162;28;20045;-37
2022/03/12 00:13:15;;;;;;;15.77;7.40;;;7.00;50.20;;;;;;5012685;28;20081;-38
2022/03/12 00:15:44;;;;;;;11.85;7.47;;;7.00;50.20;;;;;;5012938;28;20132;-37
2022/03/12 00:18:11;;;;;;;10.68;6.95;;;7.00;50.30;;;;;;5011952;28;20474;-38
2022/03/12 00:20:38;;;;;;;11.13;6.70;;;7.00;50.30;;;;;;5012663;28;20139;-38
2022/03/12 00:23:12;;;;;;;13.88;6.88;;;7.00;50.20;;;;;;5012447;28;20520;-37
2022/03/12 00:25:40;;;;;;;11.43;6.95;;;7.00;50.20;;;;;;5011993;28;20042;-37
2022/03/12 00:28:08;;;;;;;11.98;6.78;;;7.00;50.00;;;;;;5012820;28;20107;-37
2022/03/12 00:30:35;;;;;;;12.38;6.45;;;7.10;50.20;;;;;;5013081;28;20045;-38
2022/03/12 00:33:03;;;;;;;10.63;7.25;;;7.00;50.10;;;;;;5012298;28;20050;-38
2022/03/12 00:35:30;;;;;;;15.95;6.88;;;7.20;50.20;;;;;;5008576;28;20046;-37
2022/03/12 00:37:57;;;;;;;10.55;7.05;;;7.10;50.10;;;;;;5011389;28;20060;-38
2022/03/12 00:40:23;;;;;;;12.98;7.07;;;7.10;50.20;;;;;;5013060;28;20048;-37
2022/03/12 00:42:50;;;;;;;17.75;6.80;;;7.10;50.20;;;;;;5013101;28;20070;-37
2022/03/12 00:45:20;;;;;;;13.77;7.35;;;7.10;50.30;;;;;;5011459;28;20054;-37
2022/03/12 00:47:50;;;;;;;11.68;6.55;;;7.10;50.30;;;;;;5011100;28;20046;-38
2022/03/12 00:50:19;;;;;;;12.90;7.60;;;7.10;50.50;;;;;;5011427;28;20048;-37
2022/03/12 00:52:45;;;;;;;19.30;7.57;;;7.00;50.20;;;;;;5011649;28;20041;-38
2022/03/12 00:55:12;;;;;;;15.73;6.93;;;7.10;50.40;;;;;;5012507;28;20064;-38
2022/03/12 00:57:39;;;;;;;10.85;6.53;;;7.10;50.30;;;;;;5011896;28;20053;-37
2022/03/12 01:00:12;;;;;;;16.10;6.93;;;7.00;50.40;;;;;;5011343;28;20038;-37
2022/03/12 01:02:39;;;;;;;12.10;7.07;;;7.10;50.40;;;;;;5011371;28;20068;-38
2022/03/12 01:05:06;;;;;;;11.48;7.70;;;7.00;50.30;;;;;;5010803;28;20089;-37
2022/03/12 01:07:34;;;;;;;14.10;7.07;;;7.00;50.40;;;;;;5012093;28;20500;-37
2022/03/12 01:10:01;;;;;;;12.10;7.45;;;7.10;50.30;;;;;;5011376;28;20270;-38
2022/03/12 01:12:28;;;;;;;16.23;8.40;;;7.10;50.30;;;;;;5011832;28;20630;-38
2022/03/12 01:14:54;;;;;;;10.05;6.53;;;7.10;50.40;;;;;;5010806;28;20054;-38
2022/03/12 01:17:21;;;;;;;15.88;7.03;;;7.10;50.20;;;;;;5011071;28;20056;-38
2022/03/12 01:19:48;;;;;;;12.45;7.30;;;7.10;50.30;;;;;;5011372;28;20073;-38
2022/03/12 01:22:20;;;;;;;16.55;6.68;;;7.10;51.00;;;;;;5008632;28;20045;-37
2022/03/12 01:24:48;;;;;;;11.63;7.82;;;7.10;50.50;;;;;;5008490;28;20047;-38
2022/03/12 01:27:15;;;;;;;10.82;6.82;;;7.10;50.60;;;;;;5009582;28;20065;-37
2022/03/12 01:29:41;;;;;;;12.27;7.43;;;7.10;50.50;;;;;;5011619;28;20373;-37
2022/03/12 01:32:09;;;;;;;12.43;6.82;;;7.10;50.50;;;;;;5012535;28;20056;-37
2022/03/12 01:34:36;;;;;;;13.93;7.55;;;7.10;50.50;;;;;;5011313;28;20060;-38
2022/03/12 01:37:03;;;;;;;14.80;7.38;;;7.10;50.50;;;;;;5011396;28;20499;-38
2022/03/12 01:39:29;;;;;;;16.08;7.10;;;7.10;50.40;;;;;;5011018;28;20042;-38
2022/03/12 01:41:57;;;;;;;13.48;7.22;;;7.10;50.50;;;;;;5010658;28;20080;-38
2022/03/12 01:44:24;;;;;;;11.85;7.10;;;7.10;50.50;;;;;;5011885;28;20064;-38
2022/03/12 01:46:51;;;;;;;12.55;7.90;;;7.10;50.60;;;;;;5010569;28;20041;-38
2022/03/12 01:49:18;;;;;;;14.15;7.38;;;7.00;50.60;;;;;;5010265;28;20389;-38
2022/03/12 01:51:46;;;;;;;11.27;7.00;;;7.10;50.50;;;;;;5010949;28;20412;-38
2022/03/12 01:54:13;;;;;;;14.52;7.35;;;7.00;50.50;;;;;;5011035;28;20042;-37
2022/03/12 01:56:40;;;;;;;15.45;6.93;;;7.10;50.60;;;;;;5027476;28;20054;-38
2022/03/12 01:59:08;;;;;;;12.75;7.60;;;7.10;50.50;;;;;;5011948;28;20037;-38
2022/03/12 02:01:35;;;;;;;12.60;7.50;;;7.10;50.50;;;;;;5012308;28;20050;-38
2022/03/12 02:04:03;;;;;;;11.18;7.25;;;7.10;50.60;;;;;;5011903;28;20046;-38
2022/03/12 02:06:29;;;;;;;16.10;7.07;;;7.10;50.70;;;;;;5009839;28;20045;-38
2022/03/12 02:08:58;;;;;;;10.18;6.75;;;7.10;50.90;;;;;;5011112;28;20060;-38
2022/03/12 02:11:27;;;;;;;15.23;7.13;;;7.10;51.00;;;;;;5011763;28;20474;-38
2022/03/12 02:13:58;;;;;;;13.10;7.40;;;7.00;50.90;;;;;;5010965;28;20132;-39
2022/03/12 02:16:26;;;;;;;12.77;7.53;;;7.00;50.90;;;;;;5010974;28;20137;-39
2022/03/12 02:18:53;;;;;;;17.73;7.65;;;7.00;51.00;;;;;;5011905;28;20050;-38
2022/03/12 02:21:29;;;;;;;13.65;7.32;;;7.00;51.60;;;;;;5011245;28;20464;-38
2022/03/12 02:23:57;;;;;;;11.75;7.47;;;7.00;51.10;;;;;;5010522;28;20482;-37
2022/03/12 02:26:24;;;;;;;12.63;7.03;;;7.00;51.20;;;;;;5011457;28;20049;-38
2022/03/12 02:28:51;;;;;;;15.30;7.10;;;7.00;51.20;;;;;;5011999;28;20539;-38
2022/03/12 02:31:18;;;;;;;15.52;6.95;;;7.00;51.20;;;;;;5010522;28;20125;-38
2022/03/12 02:33:44;;;;;;;15.73;7.15;;;7.00;51.30;;;;;;5011504;28;20054;-38
2022/03/12 02:36:13;;;;;;;10.95;7.18;;;7.00;51.20;;;;;;5013838;28;20049;-37
2022/03/12 02:38:41;;;;;;;14.00;7.72;;;7.00;51.40;;;;;;5029764;28;20441;-38
2022/03/12 02:41:11;;;;;;;12.55;7.65;;;7.00;51.60;;;;;;5014163;28;20038;-38
2022/03/12 02:43:43;;;;;;;11.63;7.65;;;7.00;51.20;;;;;;5013759;28;20053;-37
2022/03/12 02:46:10;;;;;;;19.17;8.20;;;7.10;51.30;;;;;;5013147;28;20046;-38
2022/03/12 02:48:38;;;;;;;12.75;7.38;;;7.00;51.20;;;;;;5015232;28;20054;-38
2022/03/12 02:51:06;;;;;;;15.60;7.70;;;7.00;51.20;;;;;;5014057;28;20099;-38
2022/03/12 02:53:32;;;;;;;18.70;8.15;;;7.00;51.10;;;;;;5013932;28;20092;-38
2022/03/12 02:55:59;;;;;;;13.40;7.10;;;7.00;51.20;;;;;;5013656;28;20049;-38
2022/03/12 02:58:27;;;;;;;13.95;7.57;;;7.00;51.30;;;;;;5013973;28;20058;-37
2022/03/12 03:00:54;;;;;;;16.40;9.27;;;7.00;51.30;;;;;;5013588;28;20489;-38
2022/03/12 03:03:21;;;;;;;14.27;7.45;;;7.00;51.40;;;;;;5014206;28;20053;-37
2022/03/12 03:05:48;;;;;;;14.05;7.65;;;6.90;51.40;;;;;;5014647;28;20034;-37
2022/03/12 03:08:18;;;;;;;22.98;7.97;;;7.00;51.40;;;;;;5013441;28;20052;-38
2022/03/12 03:10:46;;;;;;;15.10;7.72;;;7.00;51.70;;;;;;5015168;28;20057;-38
2022/03/12 03:13:37;;;;;;;13.55;8.25;;;7.00;51.70;;;;;;5012951;28;20041;-38
2022/03/12 03:16:06;;;;;;;12.15;7.95;;;7.00;51.60;;;;;;5013040;28;20046;-38
2022/03/12 03:18:39;;;;;;;12.38;7.53;;;6.90;51.70;;;;;;5012996;28;20449;-38
2022/03/12 03:21:07;;;;;;;14.75;7.00;;;6.90;51.60;;;;;;5014467;28;20046;-38
2022/03/12 03:23:34;;;;;;;13.27;7.50;;;6.90;51.70;;;;;;5013140;28;20084;-38
2022/03/12 03:26:01;;;;;;;16.88;7.93;;;6.90;51.80;;;;;;5014204;28;20049;-38
2022/03/12 03:28:28;;;;;;;13.38;7.95;;;6.90;51.70;;;;;;5013141;28;20042;-38
2022/03/12 03:30:56;;;;;;;12.38;6.72;;;6.90;51.60;;;;;;5013136;28;20046;-39
2022/03/12 03:33:25;;;;;;;11.45;7.78;;;6.90;51.70;;;;;;5011491;28;20493;-38
2022/03/12 03:35:52;;;;;;;12.18;7.82;;;6.90;51.70;;;;;;5013045;28;20038;-38
2022/03/12 03:38:19;;;;;;;12.35;7.15;;;6.90;51.80;;;;;;5014202;28;20046;-38
2022/03/12 03:40:45;;;;;;;12.80;7.90;;;6.80;51.90;;;;;;5013979;28;20065;-38
2022/03/12 03:43:13;;;;;;;11.68;8.02;;;6.80;52.00;;;;;;5013319;28;20055;-38
2022/03/12 03:45:40;;;;;;;14.48;7.90;;;6.70;52.10;;;;;;5012816;28;20049;-39
2022/03/12 03:48:09;;;;;;;16.83;8.10;;;6.80;52.20;;;;;;5012678;28;20038;-38
2022/03/12 03:50:36;;;;;;;13.25;7.80;;;6.80;52.20;;;;;;5012990;28;20055;-38
2022/03/12 03:53:03;;;;;;;16.75;8.57;;;6.80;52.30;;;;;;5013749;28;20046;-39
2022/03/12 03:55:30;;;;;;;12.00;8.48;;;6.80;52.40;;;;;;5012872;28;20133;-38
2022/03/12 03:57:57;;;;;;;12.25;7.75;;;6.70;52.50;;;;;;5014159;28;20046;-39
2022/03/12 04:00:24;;;;;;;13.48;7.47;;;6.60;52.60;;;;;;5013175;28;20065;-39
2022/03/12 04:03:01;;;;;;;14.68;7.93;;;6.60;52.80;;;;;;5013784;28;20041;-38
2022/03/12 04:05:29;;;;;;;12.23;8.13;;;6.60;52.90;;;;;;5013931;28;20385;-38
2022/03/12 04:07:56;;;;;;;11.85;7.07;;;6.60;53.00;;;;;;5012357;28;20057;-39
2022/03/12 04:10:23;;;;;;;13.05;7.70;;;6.50;53.10;;;;;;5004899;28;20388;-39
2022/03/12 04:12:50;;;;;;;16.67;8.13;;;6.50;53.00;;;;;;5028822;28;20152;-38
2022/03/12 04:15:17;;;;;;;12.77;7.95;;;6.50;53.10;;;;;;5013747;28;20383;-38
2022/03/12 04:17:44;;;;;;;11.85;7.85;;;6.50;53.30;;;;;;5012172;28;20470;-39
2022/03/12 04:20:13;;;;;;;12.00;7.75;;;6.50;53.40;;;;;;5013813;28;20418;-38
2022/03/12 04:22:41;;;;;;;17.65;8.30;;;6.40;53.50;;;;;;5012208;28;20042;-38
2022/03/12 04:25:11;;;;;;;12.80;7.93;;;6.40;53.60;;;;;;5012571;28;20052;-38
2022/03/12 04:27:38;;;;;;;15.07;7.53;;;6.40;54.30;;;;;;5012663;28;20505;-38
2022/03/12 04:30:06;;;;;;;11.70;7.38;;;6.40;53.70;;;;;;5012849;28;20060;-38
2022/03/12 04:32:34;;;;;;;13.18;7.60;;;6.40;53.70;;;;;;5011587;28;20530;-38
2022/03/12 04:35:00;;;;;;;11.90;7.53;;;6.40;53.90;;;;;;5012642;28;20128;-38
2022/03/12 04:37:27;;;;;;;13.27;7.43;;;6.40;54.10;;;;;;5012818;28;20049;-37
2022/03/12 04:39:55;;;;;;;18.48;8.30;;;6.40;54.30;;;;;;5013468;28;20354;-36
2022/03/12 04:42:22;;;;;;;15.88;7.75;;;6.40;54.40;;;;;;5012413;28;20041;-38
2022/03/12 04:44:49;;;;;;;13.00;7.70;;;6.40;54.40;;;;;;5012427;28;20042;-38
2022/03/12 04:47:16;;;;;;;14.55;7.63;;;6.40;54.50;;;;;;5012643;28;20038;-38
2022/03/12 04:49:43;;;;;;;15.05;8.00;;;6.40;54.60;;;;;;5012947;28;20065;-39
2022/03/12 04:52:11;;;;;;;12.57;8.13;;;6.30;54.60;;;;;;5012609;28;20045;-38
2022/03/12 04:54:38;;;;;;;15.57;8.05;;;6.30;54.50;;;;;;5012398;28;20052;-39
2022/03/12 04:57:06;;;;;;;13.15;7.63;;;6.30;54.60;;;;;;5012900;28;20097;-38
2022/03/12 04:59:33;;;;;;;16.88;8.05;;;6.30;54.70;;;;;;5012086;28;20385;-38
2022/03/12 05:01:59;;;;;;;13.48;8.32;;;6.30;54.80;;;;;;5010099;28;20129;-39
2022/03/12 05:04:26;;;;;;;11.80;7.65;;;6.30;54.90;;;;;;5011879;28;20133;-38
2022/03/12 05:06:53;;;;;;;15.25;8.27;;;6.30;54.90;;;;;;5011290;28;20052;-39
2022/03/12 05:09:20;;;;;;;12.65;7.97;;;6.30;54.90;;;;;;5012526;28;20064;-38
2022/03/12 05:11:48;;;;;;;16.55;8.40;;;6.30;55.10;;;;;;5011235;28;20381;-38
2022/03/12 05:14:17;;;;;;;14.30;8.02;;;6.30;55.40;;;;;;5010804;28;20044;-39
2022/03/12 05:16:48;;;;;;;16.73;8.57;;;6.30;55.60;;;;;;5010499;28;20066;-39
2022/03/12 05:19:15;;;;;;;13.27;8.50;;;6.30;55.80;;;;;;5012571;28;20420;-38
2022/03/12 05:21:41;;;;;;;14.75;8.10;;;6.30;56.00;;;;;;5012855;28;20084;-38
2022/03/12 05:24:10;;;;;;;13.85;8.35;;;6.20;56.10;;;;;;5012296;28;20072;-38
2022/03/12 05:26:37;;;;;;;16.90;7.90;;;6.20;55.90;;;;;;5012315;28;20477;-39
2022/03/12 05:29:04;;;;;;;13.88;8.63;;;6.20;55.90;;;;;;5012201;28;20038;-38
2022/03/12 05:31:32;;;;;;;18.45;7.72;;;6.20;56.00;;;;;;4996188;28;20041;-39
2022/03/12 05:33:58;;;;;;;13.88;8.15;;;6.20;56.10;;;;;;5011910;28;20037;-39
2022/03/12 05:36:25;;;;;;;12.13;7.82;;;6.20;56.30;;;;;;5010857;28;20100;-39
2022/03/12 05:38:52;;;;;;;13.95;7.88;;;6.20;56.50;;;;;;5012507;28;20089;-39
2022/03/12 05:41:18;;;;;;;16.90;8.10;;;6.20;56.70;;;;;;5006283;28;20135;-39
2022/03/12 05:43:46;;;;;;;13.80;7.43;;;6.20;56.70;;;;;;5012215;28;20048;-39
2022/03/12 05:46:15;;;;;;;17.10;8.70;;;6.20;56.80;;;;;;5009635;28;20138;-38
2022/03/12 05:48:43;;;;;;;12.85;8.38;;;6.20;56.70;;;;;;5012200;28;20056;-38
2022/03/12 05:51:10;;;;;;;12.73;7.75;;;6.20;56.60;;;;;;5011696;28;20121;-38
2022/03/12 05:53:37;;;;;;;15.80;7.65;;;6.20;56.60;;;;;;5007075;28;20100;-38
2022/03/12 05:56:04;;;;;;;15.73;8.10;;;6.20;56.60;;;;;;5026892;28;20077;-39
2022/03/12 05:58:35;;;;;;;13.45;8.30;;;6.10;56.50;;;;;;5010630;28;20062;-38
2022/03/12 06:01:02;;;;;;;12.90;7.63;;;6.20;56.60;;;;;;5010844;28;20046;-39
2022/03/12 06:03:28;;;;;;;12.55;8.90;;;6.10;56.60;;;;;;5010448;28;20045;-38
2022/03/12 06:05:58;;;;;;;16.40;8.15;;;6.20;56.70;;;;;;5010794;28;20056;-39
2022/03/12 06:08:25;;;;;;;13.07;8.60;;;6.10;56.70;;;;;;5012601;28;20374;-39
2022/03/12 06:10:55;;;;;;;13.70;8.98;;;6.10;56.70;;;;;;5014762;28;20049;-38
2022/03/12 06:13:22;;;;;;;17.15;8.35;;;6.10;56.60;;;;;;5015693;28;20048;-38
2022/03/12 06:15:58;;;;;;;16.02;8.35;;;6.10;56.70;;;;;;5015864;28;20156;-38
2022/03/12 06:18:26;;;;;;;14.43;8.15;;;6.10;56.70;;;;;;5013528;28;20041;-38
2022/03/12 06:20:52;;;;;;;20.98;8.18;;;6.10;56.70;;;;;;5014233;28;20116;-38
2022/03/12 06:23:20;;;;;;;16.42;8.77;;;6.10;56.80;;;;;;5014118;28;20064;-39
2022/03/12 06:25:47;;;;;;;11.95;7.70;;;6.10;56.90;;;;;;5015953;28;20052;-38
2022/03/12 06:28:14;;;;;;;16.00;8.52;;;6.10;57.00;;;;;;5015304;28;20156;-39
2022/03/12 06:30:41;;;;;;;14.88;8.45;;;6.10;57.10;;;;;;5014111;28;20120;-39
2022/03/12 06:33:08;;;;;;;12.98;8.02;;;6.00;57.20;;;;;;5015874;28;20381;-38
2022/03/12 06:35:35;;;;;;;15.32;8.30;;;6.00;57.30;;;;;;5013833;28;20045;-38
2022/03/12 06:38:01;;;;;;;12.50;8.00;;;6.00;57.30;;;;;;5015120;28;20485;-39
2022/03/12 06:40:29;;;;;;;16.55;8.38;;;6.00;57.50;;;;;;5014109;28;20042;-38
2022/03/12 06:42:57;;;;;;;12.77;8.63;;;6.00;57.50;;;;;;5014061;28;20057;-38
2022/03/12 06:45:24;;;;;;;11.52;7.85;;;6.00;57.60;;;;;;5013875;28;20124;-39
2022/03/12 06:47:52;;;;;;;16.65;8.88;;;6.00;57.70;;;;;;5014860;28;20052;-38
2022/03/12 06:50:21;;;;;;;12.55;8.13;;;6.10;57.60;;;;;;5014769;28;20050;-39
2022/03/12 06:52:48;;;;;;;17.10;8.68;;;6.10;57.60;;;;;;5014836;28;20042;-38
2022/03/12 06:55:15;;;;;;;13.55;8.48;;;6.10;57.60;;;;;;5014034;28;20042;-38
2022/03/12 06:57:43;;;;;;;14.63;7.65;;;6.10;57.70;;;;;;5013787;28;20129;-38
2022/03/12 07:00:13;;;;;;;18.23;8.75;;;6.10;57.80;;;;;;5010392;28;20096;-38
2022/03/12 07:02:40;;;;;;;21.52;8.85;;;6.10;57.80;;;;;;5015371;28;20046;-38
2022/03/12 07:05:11;;;;;;;17.98;8.30;;;6.10;57.90;;;;;;5007078;28;20050;-39
2022/03/12 07:07:37;;;;;;;14.35;8.77;;;6.10;58.00;;;;;;5013293;28;20050;-38
2022/03/12 07:10:05;;;;;;;15.60;8.77;;;6.10;58.10;;;;;;5013440;28;20497;-38
2022/03/12 07:12:32;;;;;;;12.27;7.72;;;6.10;58.20;;;;;;5013501;28;20049;-38
2022/03/12 07:15:00;;;;;;;13.63;8.80;;;6.10;58.30;;;;;;5013468;28;20501;-39
2022/03/12 07:17:26;;;;;;;14.55;9.00;;;6.10;58.40;;;;;;5014748;28;20283;-37
2022/03/12 07:19:53;;;;;;;15.50;8.60;;;6.10;58.50;;;;;;5012496;28;20412;-38
2022/03/12 07:22:20;;;;;;;14.75;8.57;;;6.10;58.50;;;;;;5013961;28;20427;-38
2022/03/12 07:24:47;;;;;;;12.90;8.30;;;6.20;58.50;;;;;;5012062;28;20048;-38
2022/03/12 07:27:13;;;;;;;14.57;8.95;;;6.20;58.50;;;;;;5013726;28;20049;-38
2022/03/12 07:29:40;;;;;;;13.43;8.60;;;6.20;58.40;;;;;;5013741;28;20052;-38
2022/03/12 07:32:09;;;;;;;13.50;8.25;;;6.30;58.40;;;;;;5013006;28;20496;-38
2022/03/12 07:34:35;;;;;;;15.40;9.20;;;6.30;58.30;;;;;;5008774;28;20085;-38
2022/03/12 07:37:02;;;;;;;16.90;8.65;;;6.40;58.40;;;;;;5012306;28;20113;-38
2022/03/12 07:39:29;;;;;;;14.23;8.93;;;6.50;58.30;;;;;;5012651;28;20046;-38
2022/03/12 07:41:55;;;;;;;22.33;9.18;;;6.50;58.30;;;;;;5012574;28;20089;-38
2022/03/12 07:44:25;;;;;;;18.92;8.90;;;6.70;58.40;;;;;;5013816;28;20048;-38
2022/03/12 07:46:52;;;;;;;12.48;8.35;;;6.80;58.30;;;;;;5013310;28;20470;-38
2022/03/12 07:49:20;;;;;;;14.13;8.77;;;6.90;58.10;;;;;;5011870;28;20042;-38
2022/03/12 07:51:47;;;;;;;17.45;8.98;;;7.00;58.00;;;;;;5011404;28;20498;-38
2022/03/12 07:54:15;;;;;;;14.30;8.75;;;7.00;57.90;;;;;;5009618;28;20116;-39
2022/03/12 07:56:42;;;;;;;16.10;8.80;;;7.20;58.00;;;;;;5011837;28;20081;-38
2022/03/12 07:59:08;;;;;;;21.35;8.93;;;7.20;57.80;;;;;;5012415;28;20042;-39
2022/03/12 08:01:35;;;;;;;17.33;9.05;;;7.30;57.90;;;;;;5012409;28;20062;-39
2022/03/12 08:04:02;;;;;;;21.13;8.73;;;7.30;57.90;;;;;;5011847;28;20053;-39
2022/03/12 08:06:30;;;;;;;15.20;9.25;;;7.40;58.00;;;;;;4998963;28;20401;-38
2022/03/12 08:08:57;;;;;;;16.95;9.57;;;7.50;57.90;;;;;;5013100;28;20038;-38
2022/03/12 08:11:28;;;;;;;20.08;10.07;;;7.50;57.90;;;;;;5007669;28;20053;-38
2022/03/12 08:14:00;;;;;;;24.42;10.10;;;7.60;58.00;;;;;;5008823;28;20046;-38
2022/03/12 08:16:28;;;;;;;18.20;9.57;;;7.70;58.00;;;;;;5008340;28;20061;-39
2022/03/12 08:18:55;;;;;;;16.27;9.43;;;7.80;58.10;;;;;;5012224;28;20053;-39
2022/03/12 08:21:21;;;;;;;19.75;9.77;;;7.90;58.20;;;;;;5011823;28;20429;-39
2022/03/12 08:23:49;;;;;;;20.60;10.40;;;8.00;58.30;;;;;;5010893;28;20050;-39
2022/03/12 08:26:16;;;;;;;17.20;9.70;;;8.00;58.30;;;;;;5013089;28;20056;-39
2022/03/12 08:28:43;;;;;;;24.30;10.10;;;8.20;58.40;;;;;;5010939;28;20052;-39
2022/03/12 08:31:10;;;;;;;17.83;10.02;;;8.30;58.40;;;;;;5011100;28;20466;-39
2022/03/12 08:33:37;;;;;;;15.20;10.25;;;8.50;58.20;;;;;;5011598;28;20149;-39
2022/03/12 08:36:04;;;;;;;16.52;9.35;;;8.60;59.00;;;;;;5001877;28;20038;-38
2022/03/12 08:38:32;;;;;;;19.13;9.70;;;8.80;58.30;;;;;;5011525;28;20391;-37
2022/03/12 08:41:00;;;;;;;17.00;9.43;;;9.00;58.30;;;;;;5010294;28;20080;-39
2022/03/12 08:43:27;;;;;;;17.50;9.70;;;9.10;58.60;;;;;;5005713;28;20058;-38
2022/03/12 08:45:53;;;;;;;23.33;11.07;;;9.20;58.60;;;;;;5011329;28;20393;-39
2022/03/12 08:48:20;;;;;;;16.40;10.25;;;9.40;58.70;;;;;;5008719;28;20089;-39
2022/03/12 08:50:47;;;;;;;15.32;9.70;;;9.50;58.70;;;;;;5009129;28;20049;-39
2022/03/12 08:53:15;;;;;;;17.55;10.82;;;9.60;58.50;;;;;;5010339;28;20038;-39
2022/03/12 08:55:42;;;;;;;18.30;10.50;;;9.80;58.70;;;;;;5009931;28;20049;-37
2022/03/12 08:58:10;;;;;;;22.60;10.40;;;9.90;58.70;;;;;;5026940;28;20045;-38
2022/03/12 09:00:37;;;;;;;21.17;10.52;;;10.00;58.90;;;;;;5010555;28;20512;-38
2022/03/12 09:03:04;;;;;;;20.80;11.57;;;10.20;59.00;;;;;;5009884;28;20058;-38
2022/03/12 09:05:30;;;;;;;15.88;10.15;;;10.30;59.50;;;;;;5009988;28;20037;-38
2022/03/12 09:07:58;;;;;;;16.60;10.73;;;10.40;58.70;;;;;;5011191;28;20477;-38
2022/03/12 09:10:25;;;;;;;18.67;10.73;;;10.60;58.70;;;;;;5010307;28;20490;-38
2022/03/12 09:12:53;;;;;;;17.20;10.88;;;10.70;58.80;;;;;;5010393;28;20056;-38
2022/03/12 09:15:24;;;;;;;19.58;10.75;;;10.80;58.90;;;;;;5010489;28;20149;-38
2022/03/12 09:17:51;;;;;;;19.17;11.02;;;10.90;59.20;;;;;;5011386;28;20443;-38
2022/03/12 09:20:17;;;;;;;16.52;10.30;;;11.00;59.20;;;;;;5008009;28;20059;-38
2022/03/12 09:22:45;;;;;;;17.85;10.15;;;11.10;59.20;;;;;;5006819;28;20045;-38
2022/03/12 09:25:13;;;;;;;14.60;10.02;;;11.20;59.40;;;;;;5008264;28;20076;-38
2022/03/12 09:27:39;;;;;;;19.70;10.73;;;11.40;59.40;;;;;;5009765;28;20378;-38
2022/03/12 09:30:07;;;;;;;20.30;10.40;;;11.50;59.30;;;;;;5007851;28;20038;-38
2022/03/12 09:32:36;;;;;;;19.48;10.27;;;11.60;59.30;;;;;;5008512;28;20049;-38
2022/03/12 09:35:02;;;;;;;18.02;10.98;;;11.70;59.40;;;;;;5008940;28;20038;-39
2022/03/12 09:37:29;;;;;;;17.90;10.88;;;11.70;59.40;;;;;;5011188;28;20470;-39
2022/03/12 09:39:56;;;;;;;19.35;10.95;;;11.80;59.30;;;;;;5001421;28;20073;-39
2022/03/12 09:42:23;;;;;;;16.73;11.02;;;11.90;59.40;;;;;;5008902;28;20057;-39
2022/03/12 09:44:51;;;;;;;14.88;10.73;;;12.00;59.40;;;;;;5012953;28;20766;-39
2022/03/12 09:47:18;;;;;;;17.02;11.00;;;12.10;59.40;;;;;;5012871;28;20041;-39
2022/03/12 09:49:46;;;;;;;17.88;11.30;;;12.20;59.60;;;;;;5014684;28;20042;-39
2022/03/12 09:52:13;;;;;;;19.67;10.85;;;12.20;59.80;;;;;;5009611;28;20054;-39
2022/03/12 09:54:41;;;;;;;17.85;10.38;;;12.30;60.00;;;;;;5008200;28;20137;-39
2022/03/12 09:57:07;;;;;;;18.42;10.82;;;12.30;59.80;;;;;;5009854;28;20477;-39
2022/03/12 09:59:34;;;;;;;16.65;10.77;;;12.50;60.00;;;;;;5009113;28;20054;-39
2022/03/12 10:02:01;;;;;;;19.67;11.20;;;12.50;60.10;;;;;;5008830;28;20046;-39
2022/03/12 10:04:28;;;;;;;15.70;10.68;;;12.50;60.40;;;;;;5006867;28;20045;-39
2022/03/12 10:06:56;;;;;;;19.02;10.57;;;12.60;60.80;;;;;;5009259;28;20087;-39
2022/03/12 10:09:23;;;;;;;17.65;10.30;;;12.70;61.20;;;;;;5011799;28;20057;-39
2022/03/12 10:11:53;;;;;;;17.52;11.38;;;12.80;61.60;;;;;;5015287;28;20052;-39
2022/03/12 10:14:22;;;;;;;16.77;10.32;;;12.80;61.80;;;;;;5013191;28;20366;-40
2022/03/12 10:16:49;;;;;;;20.15;10.68;;;12.80;62.20;;;;;;5014906;28;20050;-40
2022/03/12 10:19:16;;;;;;;16.02;9.65;;;12.90;62.50;;;;;;5014095;28;20097;-40
2022/03/12 10:21:45;;;;;;;14.55;10.23;;;13.00;63.00;;;;;;5014789;28;20349;-40
2022/03/12 10:24:13;;;;;;;15.23;9.63;;;13.10;63.20;;;;;;5014000;28;20049;-40
2022/03/12 10:26:40;;;;;;;18.30;10.48;;;13.20;63.70;;;;;;5015371;28;20045;-40
2022/03/12 10:29:07;;;;;;;16.38;9.75;;;13.30;64.20;;;;;;5013872;28;20077;-40
2022/03/12 10:31:34;;;;;;;13.60;9.45;;;13.40;65.10;;;;;;5010050;28;20046;-40
2022/03/12 10:34:18;;;;;;;11.70;8.30;;;13.40;65.70;;;;;;5011438;28;20041;-40
2022/03/12 10:36:44;;;;;;;12.65;8.18;;;13.50;67.50;;;;;;5010191;28;20374;-40
2022/03/12 10:39:12;;;;;;;13.98;8.60;;;13.60;66.40;;;;;;5003308;28;20056;-40
2022/03/12 10:41:39;;;;;;;13.52;8.00;;;13.80;66.40;;;;;;5009602;28;20077;-40
2022/03/12 10:44:06;;;;;;;14.68;7.68;;;13.90;66.50;;;;;;5004065;28;20064;-41
2022/03/12 10:46:34;;;;;;;17.25;8.43;;;14.10;66.20;;;;;;5005705;28;20156;-40
2022/03/12 10:49:02;;;;;;;12.93;7.75;;;14.00;66.10;;;;;;5007756;28;20042;-39
2022/03/12 10:51:29;;;;;;;15.32;8.20;;;14.00;66.20;;;;;;5006073;28;20481;-39
2022/03/12 10:54:04;;;;;;;11.82;8.05;;;14.00;66.20;;;;;;5022456;28;20046;-39
2022/03/12 10:56:44;;;;;;;16.70;8.15;;;14.00;66.20;;;;;;5007973;28;20132;-39
2022/03/12 10:59:12;;;;;;;13.73;7.93;;;14.10;66.70;;;;;;5004367;28;20117;-39
2022/03/12 11:01:46;;;;;;;9.68;7.25;;;14.20;66.30;;;;;;5005315;28;20054;-40
2022/03/12 11:04:18;;;;;;;10.48;7.15;;;14.20;66.30;;;;;;5005661;28;20065;-39
2022/03/12 11:06:45;;;;;;;14.70;7.97;;;14.20;66.30;;;;;;5006917;28;20412;-39
2022/03/12 11:09:18;;;;;;;17.25;7.65;;;14.30;66.10;;;;;;5013402;28;20129;-40
2022/03/12 11:11:47;;;;;;;13.05;7.97;;;14.20;66.30;;;;;;5010105;28;20512;-39
2022/03/12 11:14:18;;;;;;;13.10;7.95;;;14.10;66.40;;;;;;5013059;28;20484;-39
2022/03/12 11:16:50;;;;;;;11.02;7.53;;;14.10;66.70;;;;;;5013209;28;20490;-39
2022/03/12 11:19:17;;;;;;;14.88;8.30;;;14.10;66.70;;;;;;5013570;28;20077;-40
2022/03/12 11:21:51;;;;;;;12.18;8.45;;;14.20;66.70;;;;;;5012763;28;20504;-40
2022/03/12 11:24:21;;;;;;;13.43;8.40;;;14.30;66.90;;;;;;5011612;28;20045;-39
2022/03/12 11:26:50;;;;;;;15.35;8.20;;;14.40;66.50;;;;;;5011887;28;20050;-39
2022/03/12 11:29:17;;;;;;;16.85;8.43;;;14.50;66.40;;;;;;5012177;28;20045;-40
2022/03/12 11:31:49;;;;;;;12.95;7.60;;;14.60;66.00;;;;;;5011348;28;20045;-39
2022/03/12 11:34:25;;;;;;;13.27;8.10;;;14.80;65.40;;;;;;5027783;28;20041;-39
2022/03/12 11:37:01;;;;;;;12.18;7.65;;;14.80;65.30;;;;;;5009264;28;20133;-40
2022/03/12 11:39:28;;;;;;;16.90;7.55;;;14.70;65.10;;;;;;5011951;28;20152;-40
2022/03/12 11:42:06;;;;;;;10.70;7.45;;;14.70;65.20;;;;;;5012254;28;20041;-39
2022/03/12 11:44:35;;;;;;;15.55;7.97;;;14.80;65.50;;;;;;5012251;28;20493;-40
2022/03/12 11:47:02;;;;;;;14.02;8.18;;;14.80;65.40;;;;;;5012392;28;20061;-40
2022/03/12 11:49:29;;;;;;;13.73;8.45;;;15.00;65.10;;;;;;5010223;28;20389;-40
2022/03/12 11:51:57;;;;;;;10.45;7.30;;;15.00;64.90;;;;;;5012883;28;20488;-40
2022/03/12 11:54:23;;;;;;;12.85;8.27;;;15.10;64.40;;;;;;5012449;28;20076;-40
2022/03/12 11:56:51;;;;;;;15.50;8.80;;;15.20;65.30;;;;;;5012273;28;20490;-40
2022/03/12 11:59:19;;;;;;;16.70;9.00;;;15.30;64.40;;;;;;5012630;28;20085;-40
2022/03/12 12:02:00;;;;;;;16.38;9.02;;;15.40;64.40;;;;;;5013187;28;20459;-45
2022/03/12 12:04:29;;;;;;;15.15;8.40;;;15.50;64.90;;;;;;5013263;28;20107;-39
2022/03/12 12:06:57;;;;;;;12.57;8.68;;;15.60;64.10;;;;;;5012121;28;20385;-40
2022/03/12 12:09:23;;;;;;;12.88;8.45;;;15.60;63.90;;;;;;5012386;28;20473;-42
2022/03/12 12:11:50;;;;;;;14.35;8.55;;;15.60;63.50;;;;;;5013947;28;20117;-40
2022/03/12 12:14:19;;;;;;;14.65;7.95;;;15.50;63.60;;;;;;5010633;28;20046;-40
2022/03/12 12:16:46;;;;;;;13.63;8.65;;;15.40;63.60;;;;;;5012200;28;20394;-40
2022/03/12 12:19:13;;;;;;;12.73;8.23;;;15.40;63.80;;;;;;5011777;28;20554;-40
2022/03/12 12:21:40;;;;;;;16.45;8.85;;;15.40;64.10;;;;;;5013298;28;20127;-41
2022/03/12 12:24:25;;;;;;;13.60;9.00;;;15.50;63.90;;;;;;5012449;28;20121;-39
2022/03/12 12:26:57;;;;;;;13.15;8.27;;;15.50;64.00;;;;;;5009535;28;20046;-41
2022/03/12 12:29:43;;;;;;;16.42;9.18;;;15.50;64.20;;;;;;5009109;28;20046;-40
2022/03/12 12:32:10;;;;;;;13.88;9.30;;;15.50;63.50;;;;;;5012592;28;20149;-41
2022/03/12 12:34:37;;;;;;;14.18;9.82;;;15.50;64.00;;;;;;5010140;28;20045;-40
2022/03/12 12:37:04;;;;;;;13.07;8.95;;;15.60;64.00;;;;;;5008779;28;20486;-40
2022/03/12 12:39:32;;;;;;;14.05;8.35;;;15.70;63.30;;;;;;5010125;28;20069;-40
2022/03/12 12:42:01;;;;;;;12.35;8.30;;;15.60;63.00;;;;;;5009069;28;20060;-41
2022/03/12 12:44:42;;;;;;;10.57;7.75;;;15.60;62.80;;;;;;5009073;28;20129;-39
2022/03/12 12:47:10;;;;;;;13.00;7.75;;;15.50;63.00;;;;;;5007465;28;20145;-40